createdAt,value
2023-03-12T00:00:32.402Z,82
2023-03-12T00:01:32.401Z,82
2023-03-12T00:02:32.704Z,83
2023-03-12T00:03:32.408Z,83
2023-03-12T00:04:32.509Z,83
2023-03-12T00:05:32.414Z,83
2023-03-12T00:06:32.424Z,82
2023-03-12T00:07:32.387Z,83
2023-03-12T00:08:37.600Z,83
2023-03-12T00:09:41.673Z,83
2023-03-12T00:10:45.635Z,83
2023-03-12T00:11:49.596Z,82
2023-03-12T00:12:53.686Z,83
2023-03-12T00:13:57.608Z,83
2023-03-12T00:15:01.692Z,83
2023-03-12T00:16:05.598Z,83
2023-03-12T00:17:09.670Z,83
2023-03-12T00:18:13.607Z,83
2023-03-12T00:19:17.774Z,83
2023-03-12T00:20:21.579Z,83
2023-03-12T00:21:25.577Z,83
2023-03-12T00:22:30.119Z,83
2023-03-12T00:23:31.479Z,83
2023-03-12T00:24:31.380Z,83
2023-03-12T00:25:31.387Z,84
2023-03-12T00:26:31.393Z,84
2023-03-12T00:27:31.408Z,84
2023-03-12T00:28:31.379Z,84
2023-03-12T00:29:31.419Z,84
2023-03-12T00:30:31.390Z,84
2023-03-12T00:31:31.431Z,84
2023-03-12T00:32:31.390Z,84
2023-03-12T00:33:31.364Z,84
2023-03-12T00:34:31.409Z,84
2023-03-12T00:35:31.447Z,84
2023-03-12T00:36:31.396Z,84
2023-03-12T00:37:31.387Z,84
2023-03-12T00:38:31.404Z,84
2023-03-12T00:39:31.343Z,84
2023-03-12T00:40:31.359Z,84
2023-03-12T00:41:31.380Z,84
2023-03-12T00:42:31.382Z,84
2023-03-12T00:43:31.397Z,84
2023-03-12T00:44:31.359Z,84
2023-03-12T00:45:31.404Z,84
2023-03-12T00:46:31.439Z,84
2023-03-12T00:47:31.470Z,84
2023-03-12T00:48:31.366Z,84
2023-03-12T00:49:31.402Z,84
2023-03-12T00:50:31.370Z,84
2023-03-12T00:51:31.452Z,85
2023-03-12T00:52:32.102Z,85
2023-03-12T00:53:31.385Z,85
2023-03-12T00:54:31.379Z,85
2023-03-12T00:55:31.400Z,85
2023-03-12T00:56:31.383Z,85
2023-03-12T00:57:31.402Z,85
2023-03-12T00:58:31.373Z,85
2023-03-12T00:59:31.394Z,85
2023-03-12T01:00:31.428Z,85
2023-03-12T01:01:31.408Z,85
2023-03-12T01:02:31.833Z,85
2023-03-12T01:03:31.401Z,85
2023-03-12T01:04:31.384Z,85
2023-03-12T01:05:32.513Z,85
2023-03-12T01:06:31.382Z,85
2023-03-12T01:07:31.422Z,85
2023-03-12T01:08:31.360Z,85
2023-03-12T01:09:31.401Z,84
2023-03-12T01:10:31.367Z,84
2023-03-12T01:11:31.399Z,84
2023-03-12T01:12:31.687Z,84
2023-03-12T01:13:31.381Z,84
2023-03-12T01:14:31.374Z,84
2023-03-12T01:15:31.436Z,84
2023-03-12T01:16:31.425Z,84
2023-03-12T01:17:31.405Z,84
2023-03-12T01:18:31.359Z,84
2023-03-12T01:19:31.448Z,83
2023-03-12T01:20:31.378Z,83
2023-03-12T01:21:31.387Z,83
2023-03-12T01:22:31.774Z,83
2023-03-12T01:23:31.422Z,83
2023-03-12T01:24:31.375Z,83
2023-03-12T01:25:31.386Z,83
2023-03-12T01:26:31.398Z,83
2023-03-12T01:27:31.390Z,82
2023-03-12T01:28:31.403Z,82
2023-03-12T01:29:31.402Z,82
2023-03-12T01:30:31.364Z,82
2023-03-12T01:31:31.394Z,82
2023-03-12T01:32:31.840Z,82
2023-03-12T01:33:31.405Z,82
2023-03-12T01:34:31.361Z,82
2023-03-12T01:35:31.469Z,82
2023-03-12T01:36:31.435Z,82
2023-03-12T01:37:31.390Z,82
2023-03-12T01:38:31.359Z,82
2023-03-12T01:39:31.434Z,82
2023-03-12T01:40:31.493Z,82
2023-03-12T01:41:31.527Z,82
2023-03-12T01:42:31.623Z,82
2023-03-12T01:43:31.494Z,82
2023-03-12T01:44:31.512Z,82
2023-03-12T01:45:31.599Z,82
2023-03-12T01:46:31.489Z,82
2023-03-12T01:47:31.472Z,82
2023-03-12T01:48:31.484Z,82
2023-03-12T01:49:31.631Z,82
2023-03-12T01:50:31.533Z,82
2023-03-12T01:51:31.489Z,82
2023-03-12T01:52:32.005Z,82
2023-03-12T01:53:31.530Z,82
2023-03-12T01:54:31.474Z,82
2023-03-12T01:55:31.510Z,82
2023-03-12T01:56:31.540Z,82
2023-03-12T01:57:31.414Z,81
2023-03-12T01:58:31.348Z,81
2023-03-12T01:59:31.433Z,81
2023-03-12T02:00:31.416Z,81
2023-03-12T02:01:31.503Z,81
2023-03-12T02:02:31.765Z,81
2023-03-12T02:03:31.370Z,81
2023-03-12T02:04:31.408Z,81
2023-03-12T02:05:31.406Z,81
2023-03-12T02:06:31.366Z,81
2023-03-12T02:07:31.363Z,81
2023-03-12T02:08:31.377Z,81
2023-03-12T02:09:31.406Z,81
2023-03-12T02:10:31.371Z,81
2023-03-12T02:11:31.369Z,81
2023-03-12T02:12:31.723Z,81
2023-03-12T02:13:31.393Z,81
2023-03-12T02:14:31.357Z,81
2023-03-12T02:15:31.348Z,81
2023-03-12T02:16:31.494Z,81
2023-03-12T02:17:31.388Z,81
2023-03-12T02:18:31.413Z,81
2023-03-12T02:19:31.430Z,81
2023-03-12T02:20:31.399Z,81
2023-03-12T02:21:31.392Z,81
2023-03-12T02:22:31.349Z,80
2023-03-12T02:23:31.416Z,80
2023-03-12T02:24:31.395Z,80
2023-03-12T02:25:31.386Z,80
2023-03-12T02:26:31.413Z,80
2023-03-12T02:27:31.347Z,80
2023-03-12T02:28:31.369Z,80
2023-03-12T02:29:31.458Z,80
2023-03-12T02:30:31.427Z,79
2023-03-12T02:31:31.388Z,79
2023-03-12T02:32:31.979Z,79
2023-03-12T02:33:31.374Z,79
2023-03-12T02:34:31.354Z,79
2023-03-12T02:35:31.432Z,79
2023-03-12T02:36:31.385Z,79
2023-03-12T02:37:31.402Z,79
2023-03-12T02:38:31.352Z,79
2023-03-12T02:39:31.389Z,79
2023-03-12T02:40:31.386Z,79
2023-03-12T02:41:31.381Z,78
2023-03-12T02:42:31.795Z,78
2023-03-12T02:43:31.386Z,78
2023-03-12T02:44:31.360Z,78
2023-03-12T02:45:31.385Z,78
2023-03-12T02:46:31.368Z,79
2023-03-12T02:47:31.510Z,79
2023-03-12T02:48:31.351Z,78
2023-03-12T02:49:31.371Z,78
2023-03-12T02:50:31.368Z,78
2023-03-12T02:51:31.408Z,78
2023-03-12T02:52:31.776Z,79
2023-03-12T02:53:31.378Z,79
2023-03-12T02:54:31.459Z,79
2023-03-12T02:55:31.388Z,79
2023-03-12T02:56:31.361Z,79
2023-03-12T02:57:31.446Z,79
2023-03-12T02:58:31.348Z,79
2023-03-12T02:59:31.417Z,79
2023-03-12T03:00:31.359Z,79
2023-03-12T03:01:31.401Z,79
2023-03-12T03:02:31.677Z,79
2023-03-12T03:03:31.380Z,79
2023-03-12T03:04:31.377Z,79
2023-03-12T03:05:31.385Z,79
2023-03-12T03:06:31.390Z,79
2023-03-12T03:07:31.420Z,79
2023-03-12T03:08:31.400Z,79
2023-03-12T03:09:31.374Z,79
2023-03-12T03:10:31.480Z,79
2023-03-12T03:11:31.372Z,78
2023-03-12T03:12:32.230Z,78
2023-03-12T03:13:31.489Z,78
2023-03-12T03:14:31.370Z,78
2023-03-12T03:15:31.463Z,78
2023-03-12T03:16:31.432Z,78
2023-03-12T03:17:31.466Z,78
2023-03-12T03:18:31.399Z,78
2023-03-12T03:19:31.390Z,78
2023-03-12T03:20:31.461Z,78
2023-03-12T03:21:31.435Z,78
2023-03-12T03:22:31.574Z,78
2023-03-12T03:23:31.390Z,78
2023-03-12T03:24:31.469Z,78
2023-03-12T03:25:31.523Z,78
2023-03-12T03:26:31.392Z,77
2023-03-12T03:27:31.380Z,77
2023-03-12T03:28:31.350Z,77
2023-03-12T03:29:31.428Z,77
2023-03-12T03:30:31.499Z,78
2023-03-12T03:31:31.636Z,78
2023-03-12T03:32:31.428Z,77
2023-03-12T03:33:31.388Z,77
2023-03-12T03:34:31.359Z,77
2023-03-12T03:35:31.552Z,77
2023-03-12T03:36:31.367Z,77
2023-03-12T03:37:31.471Z,77
2023-03-12T03:38:31.434Z,76
2023-03-12T03:39:31.436Z,76
2023-03-12T03:40:31.459Z,76
2023-03-12T03:41:31.473Z,76
2023-03-12T03:42:31.517Z,76
2023-03-12T03:43:31.458Z,76
2023-03-12T03:44:31.515Z,76
2023-03-12T03:45:31.366Z,76
2023-03-12T03:46:31.559Z,76
2023-03-12T03:47:31.446Z,76
2023-03-12T03:48:31.434Z,76
2023-03-12T03:49:31.515Z,76
2023-03-12T03:50:31.417Z,76
2023-03-12T03:51:31.383Z,76
2023-03-12T03:52:31.369Z,76
2023-03-12T03:53:31.374Z,76
2023-03-12T03:54:31.364Z,75
2023-03-12T03:55:31.444Z,75
2023-03-12T03:56:31.391Z,75
2023-03-12T03:57:31.360Z,75
2023-03-12T03:58:31.359Z,75
2023-03-12T03:59:31.461Z,75
2023-03-12T04:00:31.383Z,75
2023-03-12T04:01:31.401Z,75
2023-03-12T04:02:31.337Z,75
2023-03-12T04:03:31.439Z,75
2023-03-12T04:04:31.400Z,75
2023-03-12T04:05:31.464Z,76
2023-03-12T04:06:31.353Z,75
2023-03-12T04:07:31.450Z,75
2023-03-12T04:08:31.396Z,75
2023-03-12T04:09:31.331Z,75
2023-03-12T04:10:31.354Z,76
2023-03-12T04:11:31.412Z,76
2023-03-12T04:12:31.925Z,76
2023-03-12T04:13:31.341Z,76
2023-03-12T04:14:31.509Z,76
2023-03-12T04:15:31.375Z,75
2023-03-12T04:16:31.364Z,76
2023-03-12T04:17:31.359Z,76
2023-03-12T04:18:31.349Z,76
2023-03-12T04:19:31.420Z,76
2023-03-12T04:20:31.386Z,76
2023-03-12T04:21:31.412Z,76
2023-03-12T04:22:31.357Z,76
2023-03-12T04:23:31.391Z,76
2023-03-12T04:24:31.370Z,76
2023-03-12T04:25:31.334Z,76
2023-03-12T04:26:31.334Z,76
2023-03-12T04:27:31.392Z,76
2023-03-12T04:28:31.374Z,76
2023-03-12T04:29:31.361Z,76
2023-03-12T04:30:31.352Z,76
2023-03-12T04:31:31.473Z,76
2023-03-12T04:32:32.055Z,76
2023-03-12T04:33:31.368Z,76
2023-03-12T04:34:31.340Z,76
2023-03-12T04:35:31.441Z,76
2023-03-12T04:36:31.392Z,76
2023-03-12T04:37:31.350Z,76
2023-03-12T04:38:31.346Z,76
2023-03-12T04:39:31.352Z,76
2023-03-12T04:40:31.362Z,77
2023-03-12T04:41:31.347Z,77
2023-03-12T04:42:31.995Z,77
2023-03-12T04:43:31.418Z,77
2023-03-12T04:44:31.370Z,77
2023-03-12T04:45:31.496Z,77
2023-03-12T04:46:31.410Z,77
2023-03-12T04:47:31.400Z,77
2023-03-12T04:48:31.382Z,77
2023-03-12T04:49:31.397Z,77
2023-03-12T04:50:31.368Z,77
2023-03-12T04:51:31.404Z,77
2023-03-12T04:52:32.059Z,77
2023-03-12T04:53:31.437Z,77
2023-03-12T04:54:31.359Z,77
2023-03-12T04:55:31.390Z,77
2023-03-12T04:56:31.380Z,77
2023-03-12T04:57:31.369Z,77
2023-03-12T04:58:31.392Z,78
2023-03-12T04:59:31.382Z,78
2023-03-12T05:00:31.375Z,78
2023-03-12T05:01:31.348Z,78
2023-03-12T05:02:31.418Z,78
2023-03-12T05:03:31.450Z,78
2023-03-12T05:04:33.534Z,78
2023-03-12T05:05:31.368Z,78
2023-03-12T05:06:31.407Z,78
2023-03-12T05:07:31.408Z,78
2023-03-12T05:08:31.389Z,78
2023-03-12T05:09:31.390Z,78
2023-03-12T05:10:31.397Z,78
2023-03-12T05:11:31.388Z,78
2023-03-12T05:12:31.383Z,78
2023-03-12T05:13:31.386Z,78
2023-03-12T05:14:31.435Z,79
2023-03-12T05:15:31.372Z,79
2023-03-12T05:16:31.469Z,79
2023-03-12T05:17:31.384Z,79
2023-03-12T05:18:31.405Z,79
2023-03-12T05:19:31.385Z,79
2023-03-12T05:20:31.379Z,79
2023-03-12T05:21:31.338Z,79
2023-03-12T05:22:32.093Z,79
2023-03-12T05:23:31.382Z,79
2023-03-12T05:24:31.396Z,79
2023-03-12T05:25:31.406Z,79
2023-03-12T05:26:31.495Z,79
2023-03-12T05:27:32.001Z,79
2023-03-12T05:28:31.354Z,79
2023-03-12T05:29:31.383Z,79
2023-03-12T05:30:31.361Z,79
2023-03-12T05:31:31.479Z,79
2023-03-12T05:32:32.234Z,79
2023-03-12T05:33:31.361Z,79
2023-03-12T05:34:31.383Z,79
2023-03-12T05:35:31.476Z,79
2023-03-12T05:36:31.407Z,79
2023-03-12T05:37:31.388Z,79
2023-03-12T05:38:31.401Z,79
2023-03-12T05:39:31.386Z,79
2023-03-12T05:40:31.407Z,79
2023-03-12T05:41:31.394Z,79
2023-03-12T05:42:31.408Z,79
2023-03-12T05:43:31.382Z,79
2023-03-12T05:44:31.409Z,79
2023-03-12T05:45:31.403Z,79
2023-03-12T05:46:31.415Z,79
2023-03-12T05:47:31.384Z,79
2023-03-12T05:48:31.390Z,79
2023-03-12T05:49:31.344Z,79
2023-03-12T05:50:31.397Z,79
2023-03-12T05:51:31.371Z,79
2023-03-12T05:52:31.392Z,79
2023-03-12T05:53:31.415Z,79
2023-03-12T05:54:31.477Z,79
2023-03-12T05:55:31.349Z,79
2023-03-12T05:56:31.411Z,79
2023-03-12T05:57:31.348Z,78
2023-03-12T05:58:31.386Z,78
2023-03-12T05:59:31.415Z,78
2023-03-12T06:00:31.398Z,77
2023-03-12T06:01:31.446Z,77
2023-03-12T06:02:31.395Z,77
2023-03-12T06:03:31.405Z,77
2023-03-12T06:04:31.402Z,77
2023-03-12T06:05:31.354Z,77
2023-03-12T06:06:31.461Z,77
2023-03-12T06:07:31.404Z,76
2023-03-12T06:08:31.401Z,77
2023-03-12T06:09:31.345Z,77
2023-03-12T06:10:31.405Z,77
2023-03-12T06:11:31.400Z,77
2023-03-12T06:12:32.149Z,78
2023-03-12T06:13:31.359Z,78
2023-03-12T06:14:31.520Z,78
2023-03-12T06:15:31.414Z,78
2023-03-12T06:16:31.422Z,78
2023-03-12T06:17:31.348Z,78
2023-03-12T06:18:31.419Z,78
2023-03-12T06:19:31.340Z,78
2023-03-12T06:20:31.371Z,78
2023-03-12T06:21:31.415Z,78
2023-03-12T06:22:31.425Z,78
2023-03-12T06:23:31.452Z,78
2023-03-12T06:24:31.382Z,79
2023-03-12T06:25:31.356Z,78
2023-03-12T06:26:31.431Z,78
2023-03-12T06:27:31.349Z,78
2023-03-12T06:28:31.385Z,78
2023-03-12T06:29:31.356Z,78
2023-03-12T06:30:31.400Z,78
2023-03-12T06:31:31.427Z,78
2023-03-12T06:32:31.591Z,78
2023-03-12T06:33:31.340Z,78
2023-03-12T06:34:31.380Z,78
2023-03-12T06:35:31.400Z,78
2023-03-12T06:36:31.377Z,78
2023-03-12T06:37:31.354Z,78
2023-03-12T06:38:31.416Z,78
2023-03-12T06:39:31.379Z,78
2023-03-12T06:40:31.378Z,79
2023-03-12T06:41:31.409Z,79
2023-03-12T06:42:31.384Z,79
2023-03-12T06:43:31.314Z,79
2023-03-12T06:44:31.339Z,79
2023-03-12T06:45:31.380Z,79
2023-03-12T06:46:31.431Z,79
2023-03-12T06:47:31.379Z,79
2023-03-12T06:48:31.323Z,79
2023-03-12T06:49:31.389Z,79
2023-03-12T06:50:31.352Z,79
2023-03-12T06:51:31.350Z,79
2023-03-12T06:52:32.267Z,79
2023-03-12T06:53:31.404Z,79
2023-03-12T06:54:31.376Z,79
2023-03-12T06:55:31.353Z,79
2023-03-12T06:56:31.396Z,79
2023-03-12T06:57:31.376Z,79
2023-03-12T06:58:31.364Z,80
2023-03-12T06:59:31.371Z,80
2023-03-12T07:00:31.405Z,80
2023-03-12T07:01:31.446Z,80
2023-03-12T07:02:31.474Z,80
2023-03-12T07:03:31.397Z,80
2023-03-12T07:04:31.331Z,80
2023-03-12T07:05:31.402Z,80
2023-03-12T07:06:31.365Z,80
2023-03-12T07:07:31.369Z,80
2023-03-12T07:08:31.411Z,80
2023-03-12T07:09:31.383Z,80
2023-03-12T07:10:31.554Z,80
2023-03-12T07:11:31.348Z,80
2023-03-12T07:12:31.648Z,81
2023-03-12T07:13:31.370Z,81
2023-03-12T07:14:31.342Z,81
2023-03-12T07:15:31.396Z,81
2023-03-12T07:16:31.526Z,81
2023-03-12T07:17:31.372Z,81
2023-03-12T07:18:31.420Z,80
2023-03-12T07:19:31.358Z,80
2023-03-12T07:20:31.399Z,80
2023-03-12T07:21:31.369Z,80
2023-03-12T07:22:32.192Z,80
2023-03-12T07:23:31.367Z,79
2023-03-12T07:24:31.362Z,79
2023-03-12T07:25:31.394Z,79
2023-03-12T07:26:31.363Z,79
2023-03-12T07:27:31.354Z,79
2023-03-12T07:28:31.383Z,79
2023-03-12T07:29:31.435Z,79
2023-03-12T07:30:31.435Z,79
2023-03-12T07:31:31.443Z,79
2023-03-12T07:32:32.150Z,78
2023-03-12T07:33:31.582Z,78
2023-03-12T07:34:31.611Z,78
2023-03-12T07:35:31.568Z,78
2023-03-12T07:36:31.558Z,77
2023-03-12T07:37:31.458Z,77
2023-03-12T07:38:31.455Z,77
2023-03-12T07:39:31.403Z,77
2023-03-12T07:40:31.364Z,76
2023-03-12T07:41:31.375Z,76
2023-03-12T07:42:31.601Z,77
2023-03-12T07:43:31.356Z,77
2023-03-12T07:44:31.378Z,77
2023-03-12T07:45:31.487Z,77
2023-03-12T07:46:31.510Z,77
2023-03-12T07:47:31.675Z,77
2023-03-12T07:48:31.371Z,77
2023-03-12T07:49:31.378Z,76
2023-03-12T07:50:31.421Z,75
2023-03-12T07:51:31.361Z,76
2023-03-12T07:52:32.416Z,75
2023-03-12T07:53:31.327Z,75
2023-03-12T07:54:31.489Z,76
2023-03-12T07:55:31.447Z,76
2023-03-12T07:56:31.390Z,76
2023-03-12T07:57:31.452Z,76
2023-03-12T07:58:31.606Z,75
2023-03-12T07:59:31.362Z,75
2023-03-12T08:00:31.484Z,75
2023-03-12T08:01:31.521Z,75
2023-03-12T08:02:31.553Z,75
2023-03-12T08:03:31.558Z,75
2023-03-12T08:04:31.484Z,76
2023-03-12T08:05:31.647Z,77
2023-03-12T08:06:31.446Z,77
2023-03-12T08:07:31.491Z,77
2023-03-12T08:08:31.469Z,77
2023-03-12T08:09:31.328Z,77
2023-03-12T08:10:31.424Z,78
2023-03-12T08:11:31.346Z,78
2023-03-12T08:12:31.461Z,78
2023-03-12T08:13:31.515Z,77
2023-03-12T08:14:31.402Z,76
2023-03-12T08:15:31.325Z,76
2023-03-12T08:16:31.390Z,76
2023-03-12T08:17:31.365Z,76
2023-03-12T08:18:31.462Z,76
2023-03-12T08:19:31.448Z,76
2023-03-12T08:20:31.380Z,75
2023-03-12T08:21:31.344Z,75
2023-03-12T08:22:31.521Z,74
2023-03-12T08:23:31.320Z,73
2023-03-12T08:24:31.364Z,73
2023-03-12T08:25:31.492Z,72
2023-03-12T08:26:31.387Z,72
2023-03-12T08:27:31.666Z,71
2023-03-12T08:28:31.363Z,72
2023-03-12T08:29:31.321Z,72
2023-03-12T08:30:31.523Z,72
2023-03-12T08:31:31.366Z,71
2023-03-12T08:32:31.457Z,71
2023-03-12T08:33:31.341Z,71
2023-03-12T08:34:31.384Z,70
2023-03-12T08:35:31.414Z,70
2023-03-12T08:36:31.350Z,70
2023-03-12T08:37:31.346Z,69
2023-03-12T08:38:31.370Z,71
2023-03-12T08:39:31.331Z,71
2023-03-12T08:40:31.399Z,72
2023-03-12T08:41:31.389Z,72
2023-03-12T08:42:31.365Z,71
2023-03-12T08:43:31.344Z,72
2023-03-12T08:44:31.361Z,72
2023-03-12T08:45:31.524Z,73
2023-03-12T08:46:31.376Z,73
2023-03-12T08:47:31.340Z,73
2023-03-12T08:48:31.344Z,73
2023-03-12T08:49:31.358Z,73
2023-03-12T08:50:31.348Z,73
2023-03-12T08:51:31.343Z,72
2023-03-12T08:52:32.312Z,72
2023-03-12T08:53:31.349Z,72
2023-03-12T08:54:31.347Z,72
2023-03-12T08:55:31.351Z,72
2023-03-12T08:56:31.339Z,72
2023-03-12T08:57:31.381Z,71
2023-03-12T08:58:31.379Z,69
2023-03-12T08:59:31.920Z,69
2023-03-12T09:00:31.355Z,70
2023-03-12T09:01:31.399Z,70
2023-03-12T09:02:31.496Z,71
2023-03-12T09:03:31.406Z,71
2023-03-12T09:04:31.386Z,70
2023-03-12T09:05:31.341Z,71
2023-03-12T09:06:31.340Z,71
2023-03-12T09:07:31.385Z,71
2023-03-12T09:08:31.341Z,69
2023-03-12T09:09:31.373Z,70
2023-03-12T09:10:31.483Z,70
2023-03-12T09:11:31.337Z,69
2023-03-12T09:12:31.327Z,69
2023-03-12T09:13:50.771Z,70
2023-03-12T09:15:01.972Z,70
2023-03-12T09:15:31.389Z,70
2023-03-12T09:16:31.388Z,68
2023-03-12T09:17:31.420Z,69
2023-03-12T09:18:31.374Z,68
2023-03-12T09:19:31.348Z,69
2023-03-12T09:20:31.369Z,68
2023-03-12T09:21:31.338Z,69
2023-03-12T09:22:31.573Z,69
2023-03-12T09:23:31.344Z,71
2023-03-12T09:24:31.330Z,71
2023-03-12T09:25:31.378Z,71
2023-03-12T09:26:31.353Z,71
2023-03-12T09:27:31.313Z,71
2023-03-12T09:28:31.327Z,71
2023-03-12T09:29:31.412Z,71
2023-03-12T09:30:31.452Z,70
2023-03-12T09:31:31.362Z,71
2023-03-12T09:32:31.631Z,71
2023-03-12T09:33:31.365Z,70
2023-03-12T09:34:31.431Z,70
2023-03-12T09:35:31.526Z,70
2023-03-12T09:36:31.340Z,71
2023-03-12T09:37:31.353Z,71
2023-03-12T09:38:31.346Z,70
2023-03-12T09:39:31.297Z,69
2023-03-12T09:40:31.323Z,70
2023-03-12T09:41:31.334Z,70
2023-03-12T09:42:31.345Z,70
2023-03-12T09:43:31.299Z,70
2023-03-12T09:44:31.339Z,69
2023-03-12T09:45:31.342Z,70
2023-03-12T09:46:31.378Z,69
2023-03-12T09:47:31.324Z,68
2023-03-12T09:48:31.311Z,69
2023-03-12T09:49:31.373Z,69
2023-03-12T09:50:31.358Z,69
2023-03-12T09:51:31.293Z,70
2023-03-12T09:52:31.328Z,70
2023-03-12T09:53:31.356Z,69
2023-03-12T09:54:31.375Z,69
2023-03-12T09:55:31.345Z,69
2023-03-12T09:56:31.331Z,71
2023-03-12T09:57:31.577Z,70
2023-03-12T09:58:31.350Z,69
2023-03-12T09:59:31.344Z,69
2023-03-12T10:00:31.323Z,69
2023-03-12T10:01:31.363Z,70
2023-03-12T10:02:31.400Z,69
2023-03-12T10:03:31.387Z,69
2023-03-12T10:04:31.332Z,69
2023-03-12T10:05:31.361Z,68
2023-03-12T10:06:31.464Z,68
2023-03-12T10:07:31.389Z,69
2023-03-12T10:08:31.339Z,69
2023-03-12T10:09:31.343Z,70
2023-03-12T10:10:31.418Z,70
2023-03-12T10:11:31.321Z,71
2023-03-12T10:12:31.359Z,72
2023-03-12T10:13:31.339Z,72
2023-03-12T10:14:31.474Z,72
2023-03-12T10:15:31.351Z,73
2023-03-12T10:16:31.382Z,73
2023-03-12T10:17:31.384Z,72
2023-03-12T10:18:31.444Z,71
2023-03-12T10:19:31.327Z,71
2023-03-12T10:20:31.329Z,71
2023-03-12T10:21:31.348Z,70
2023-03-12T10:22:31.523Z,71
2023-03-12T10:23:31.324Z,71
2023-03-12T10:24:31.331Z,71
2023-03-12T10:25:31.440Z,71
2023-03-12T10:26:31.603Z,71
2023-03-12T10:27:31.390Z,71
2023-03-12T10:28:31.326Z,71
2023-03-12T10:29:31.353Z,70
2023-03-12T10:30:31.375Z,70
2023-03-12T10:31:31.340Z,70
2023-03-12T10:32:31.387Z,70
2023-03-12T10:33:31.326Z,70
2023-03-12T10:34:31.371Z,70
2023-03-12T10:35:31.344Z,70
2023-03-12T10:36:31.317Z,70
2023-03-12T10:37:31.320Z,70
2023-03-12T10:38:31.338Z,70
2023-03-12T10:39:31.347Z,70
2023-03-12T10:40:31.341Z,70
2023-03-12T10:41:34.566Z,70
2023-03-12T10:42:31.310Z,70
2023-03-12T10:43:31.308Z,70
2023-03-12T10:44:31.360Z,70
2023-03-12T10:45:31.455Z,69
2023-03-12T10:46:33.381Z,69
2023-03-12T10:47:31.337Z,69
2023-03-12T10:48:31.317Z,69
2023-03-12T10:49:31.364Z,69
2023-03-12T10:50:31.338Z,69
2023-03-12T10:51:31.375Z,69
2023-03-12T10:52:31.320Z,69
2023-03-12T10:53:31.351Z,70
2023-03-12T10:54:31.327Z,70
2023-03-12T10:55:31.344Z,69
2023-03-12T10:56:31.316Z,69
2023-03-12T10:57:31.321Z,69
2023-03-12T10:58:31.340Z,68
2023-03-12T10:59:31.350Z,67
2023-03-12T11:00:31.321Z,67
2023-03-12T11:01:31.404Z,68
2023-03-12T11:02:31.334Z,67
2023-03-12T11:03:31.314Z,67
2023-03-12T11:04:31.359Z,67
2023-03-12T11:05:31.499Z,67
2023-03-12T11:06:31.315Z,67
2023-03-12T11:07:31.339Z,66
2023-03-12T11:08:31.342Z,67
2023-03-12T11:09:31.352Z,67
2023-03-12T11:10:31.329Z,66
2023-03-12T11:11:31.356Z,66
2023-03-12T11:12:32.421Z,67
2023-03-12T11:13:31.363Z,67
2023-03-12T11:14:31.326Z,67
2023-03-12T11:15:31.332Z,66
2023-03-12T11:16:32.300Z,66
2023-03-12T11:17:31.330Z,66
2023-03-12T11:18:31.331Z,65
2023-03-12T11:19:31.411Z,66
2023-03-12T11:20:31.322Z,67
2023-03-12T11:21:31.360Z,66
2023-03-12T11:22:31.319Z,66
2023-03-12T11:23:31.336Z,65
2023-03-12T11:24:31.376Z,65
2023-03-12T11:25:31.372Z,65
2023-03-12T11:26:31.358Z,64
2023-03-12T11:27:31.336Z,65
2023-03-12T11:28:31.354Z,64
2023-03-12T11:29:31.563Z,65
2023-03-12T11:30:31.327Z,64
2023-03-12T11:31:31.432Z,65
2023-03-12T11:32:31.363Z,64
2023-03-12T11:33:31.428Z,64
2023-03-12T11:34:31.322Z,64
2023-03-12T11:35:31.385Z,64
2023-03-12T11:36:31.378Z,65
2023-03-12T11:37:31.342Z,64
2023-03-12T11:38:31.292Z,64
2023-03-12T11:39:31.285Z,63
2023-03-12T11:40:31.324Z,61
2023-03-12T11:41:31.324Z,61
2023-03-12T11:42:31.474Z,60
2023-03-12T11:43:42.905Z,61
2023-03-12T11:44:31.344Z,61
2023-03-12T11:45:31.320Z,60
2023-03-12T11:46:31.455Z,61
2023-03-12T11:47:31.431Z,61
2023-03-12T11:48:31.388Z,59
2023-03-12T11:49:31.332Z,58
2023-03-12T11:50:31.344Z,58
2023-03-12T11:51:31.327Z,59
2023-03-12T11:52:31.326Z,59
2023-03-12T11:53:31.307Z,59
2023-03-12T11:54:31.339Z,59
2023-03-12T11:55:31.334Z,59
2023-03-12T11:56:31.329Z,58
2023-03-12T11:57:31.312Z,57
2023-03-12T11:58:31.351Z,58
2023-03-12T11:59:31.317Z,57
2023-03-12T12:00:31.328Z,58
2023-03-12T12:01:31.308Z,58
2023-03-12T12:02:31.339Z,57
2023-03-12T12:03:31.345Z,56
2023-03-12T12:04:31.369Z,57
2023-03-12T12:05:31.496Z,57
2023-03-12T12:06:31.317Z,54
2023-03-12T12:07:31.374Z,53
2023-03-12T12:08:31.325Z,52
2023-03-12T12:09:31.303Z,53
2023-03-12T12:10:31.448Z,54
2023-03-12T12:11:31.334Z,55
2023-03-12T12:12:31.725Z,54
2023-03-12T12:13:31.301Z,54
2023-03-12T12:14:31.320Z,55
2023-03-12T12:15:31.318Z,54
2023-03-12T12:16:31.374Z,53
2023-03-12T12:17:31.375Z,52
2023-03-12T12:18:31.346Z,53
2023-03-12T12:19:31.310Z,53
2023-03-12T12:20:31.341Z,54
2023-03-12T12:21:31.326Z,53
2023-03-12T12:22:31.334Z,53
2023-03-12T12:23:31.318Z,53
2023-03-12T12:24:31.353Z,52
2023-03-12T12:25:31.318Z,52
2023-03-12T12:26:31.351Z,53
2023-03-12T12:27:31.308Z,52
2023-03-12T12:28:31.320Z,52
2023-03-12T12:29:31.312Z,52
2023-03-12T12:30:31.332Z,53
2023-03-12T12:31:31.418Z,53
2023-03-12T12:32:31.814Z,52
2023-03-12T12:33:31.323Z,52
2023-03-12T12:34:31.350Z,52
2023-03-12T12:35:31.337Z,53
2023-03-12T12:36:31.327Z,51
2023-03-12T12:37:31.312Z,52
2023-03-12T12:38:31.321Z,51
2023-03-12T12:39:31.350Z,50
2023-03-12T12:40:31.349Z,50
2023-03-12T12:41:31.348Z,51
2023-03-12T12:42:32.400Z,50
2023-03-12T12:43:31.303Z,51
2023-03-12T12:44:31.320Z,51
2023-03-12T12:45:31.300Z,52
2023-03-12T12:46:31.436Z,52
2023-03-12T12:47:31.344Z,52
2023-03-12T12:48:31.319Z,51
2023-03-12T12:49:32.068Z,51
2023-03-12T12:50:31.374Z,52
2023-03-12T12:51:31.351Z,51
2023-03-12T12:52:31.499Z,51
2023-03-12T12:53:31.336Z,51
2023-03-12T12:54:31.342Z,50
2023-03-12T12:55:31.319Z,49
2023-03-12T12:56:31.337Z,50
2023-03-12T12:57:31.319Z,50
2023-03-12T12:58:31.334Z,50
2023-03-12T12:59:31.311Z,50
2023-03-12T13:00:31.326Z,48
2023-03-12T13:01:31.441Z,49
2023-03-12T13:02:31.349Z,49
2023-03-12T13:03:31.329Z,49
2023-03-12T13:04:31.399Z,50
2023-03-12T13:05:31.325Z,50
2023-03-12T13:06:31.349Z,51
2023-03-12T13:07:31.349Z,50
2023-03-12T13:08:31.298Z,50
2023-03-12T13:09:31.318Z,51
2023-03-12T13:10:31.353Z,49
2023-03-12T13:11:31.313Z,50
2023-03-12T13:12:31.406Z,49
2023-03-12T13:13:31.318Z,49
2023-03-12T13:14:31.340Z,50
2023-03-12T13:15:31.370Z,50
2023-03-12T13:16:31.364Z,50
2023-03-12T13:17:31.400Z,49
2023-03-12T13:18:31.349Z,50
2023-03-12T13:19:31.309Z,51
2023-03-12T13:20:31.319Z,50
2023-03-12T13:21:31.335Z,50
2023-03-12T13:22:31.336Z,49
2023-03-12T13:23:31.299Z,49
2023-03-12T13:24:31.318Z,50
2023-03-12T13:25:31.296Z,50
2023-03-12T13:26:31.338Z,50
2023-03-12T13:27:31.331Z,49
2023-03-12T13:28:31.313Z,48
2023-03-12T13:29:31.333Z,48
2023-03-12T13:30:31.331Z,48
2023-03-12T13:31:31.419Z,48
2023-03-12T13:32:31.363Z,48
2023-03-12T13:33:31.316Z,49
2023-03-12T13:34:31.338Z,47
2023-03-12T13:35:31.497Z,47
2023-03-12T13:36:31.368Z,48
2023-03-12T13:37:31.312Z,49
2023-03-12T13:38:31.374Z,47
2023-03-12T13:39:31.309Z,47
2023-03-12T13:40:31.351Z,49
2023-03-12T13:41:31.919Z,47
2023-03-12T13:42:31.344Z,47
2023-03-12T13:43:31.333Z,48
2023-03-12T13:44:31.333Z,48
2023-03-12T13:45:31.303Z,48
2023-03-12T13:46:31.381Z,49
2023-03-12T13:47:31.298Z,48
2023-03-12T13:48:31.319Z,49
2023-03-12T13:49:31.299Z,47
2023-03-12T13:50:31.349Z,48
2023-03-12T13:51:31.298Z,48
2023-03-12T13:52:31.375Z,46
2023-03-12T13:53:31.292Z,47
2023-03-12T13:54:31.342Z,48
2023-03-12T13:55:31.332Z,48
2023-03-12T13:56:31.405Z,47
2023-03-12T13:57:31.348Z,47
2023-03-12T13:58:31.323Z,48
2023-03-12T13:59:31.324Z,49
2023-03-12T14:00:31.323Z,48
2023-03-12T14:01:31.391Z,47
2023-03-12T14:02:31.349Z,46
2023-03-12T14:03:31.304Z,46
2023-03-12T14:04:31.371Z,47
2023-03-12T14:05:31.298Z,47
2023-03-12T14:06:31.354Z,47
2023-03-12T14:07:31.304Z,46
2023-03-12T14:08:31.332Z,47
2023-03-12T14:09:31.293Z,49
2023-03-12T14:10:31.312Z,47
2023-03-12T14:11:31.292Z,48
2023-03-12T14:12:31.741Z,49
2023-03-12T14:13:31.298Z,48
2023-03-12T14:14:31.347Z,49
2023-03-12T14:15:31.320Z,49
2023-03-12T14:16:31.384Z,49